SLSA/SBL METAR and TAF weather

Enter ICAO airport designator
Station Type Date Time Source
SLSA METAR 2024/04/17 18:00 UTC NOAA

SLSA 171800Z 14010KT 9999 -RA SCT005 OVC070 22/21 Q1014


Station Type Date Time Source
SLSA Decoded METAR 2024/04/17 18:00 UTC NOAA

Santa Ana, Bolivia (SLSA) 13-46S 065-26W
Apr 17, 2024 - 02:00 PM EDT / 2024.04.17 1800 UTC
Wind: from the SE (140 degrees) at 12 MPH (10 KT):0
Visibility: greater than 7 mile(s):0
Sky conditions: overcast
Weather: light rain
Temperature: 71 F (22 C)
Dew Point: 69 F (21 C)
Relative Humidity: 94%
Pressure (altimeter): 29.94 in. Hg (1014 hPa)
ob: SLSA 171800Z 14010KT 9999 -RA SCT005 OVC070 22/21 Q1014
cycle: 18

Station Type Date Time Source
SLSA TAF 2009/01/07 11:00 UTC NOAA